Airfield :
LOGIN :

Register | Disclaimer

   EN    FR    IT 

 










Legend :    VFR   Marginal VFR   IFR   Intensive IFR   Very Intensive IFR
Visi :
Ceiling :
>= 8 km
>= 3000ft
5 to 8 km
1000 to 3000 ft
1500m to 5 km
500 to 1000 ft
800 to 1500m
200 to 500 ft
< 800m
< 200 ft
Symbols :   Thunderstorms  Fog  Heavy snow  Heavy precipitations  Wind > 20 kt
SIGMETs :     Misc.  Thunderstorms  Icing  Turbulence  Mountain Waves  Volcanic Ashes






- Airport Elevation : 238 ft
- IATA code : FAB


EGLF - Farnborough

CURRENT METAR :
  • 131150Z AUTO 22005KT 9999 FEW021/// 08/03 Q1000

EXPIRED METARs :
  • 131120Z AUTO 26006KT 220V290 9999 NCD 08/04 Q1000
  • 131050Z AUTO 24008KT 9999 NCD 08/04 Q1001
  • 131020Z AUTO 24007KT 9999 NCD 07/04 Q1001
  • 130950Z AUTO 25009KT 9999 FEW043/// 06/03 Q1001
  • 130920Z AUTO 24007KT 9999 NCD 05/03 Q1002

TAF TAF EGLF
Valid from the 13 at 12:00 until the 13 at 21:00 UTC


131058Z 1312/1321 25008KT 9999 SCT040
BECMG 1312/1315 19010KT
ATIS : +44 09063 800 400 (*282)



MET'MAP, your aeronautical weather chart ! - Copyright ORBIFLY December 2007 - Disclaimer

ORBIFLY MET'MAP TEAM :

Programming & Development : Alexandra Zaïnal
Concept & Development : Baudouin d'Aumeries
Co-Development & Prog : Marc-Olivier Méhu
Technical & hardware support : Manuel Goepfert

Contact : metmap@orbifly.com




SOURCES & CREDITS :

   NOAA